Time;durP1;ratioP1;P1;durP2;ratioP2;P2;SDS_P1;SDS_P2;PMS_P1;PMS_P2;Temp;Humidity;BMP_temperature;BMP_pressure;BME280_temperature;BME280_humidity;BME280_pressure;Samples;Min_cycle;Max_cycle;Signal;HPM_P1;HPM_P2
2021/01/24 00:00:17;;;;;;;3.65;2.58;;;15.80;99.90;;;;;;5005676;28;20046;-63
2021/01/24 00:02:43;;;;;;;4.32;2.17;;;15.70;99.90;;;;;;5011661;28;20080;-63
2021/01/24 00:05:08;;;;;;;5.07;2.83;;;15.70;99.90;;;;;;5011743;28;20057;-63
2021/01/24 00:07:34;;;;;;;4.20;2.40;;;15.60;99.90;;;;;;5011475;28;20030;-63
2021/01/24 00:10:00;;;;;;;3.42;2.30;;;15.60;99.90;;;;;;5011265;28;20028;-63
2021/01/24 00:12:25;;;;;;;5.07;2.40;;;15.60;99.90;;;;;;5010433;28;20385;-63
2021/01/24 00:14:51;;;;;;;6.25;2.40;;;15.60;99.90;;;;;;5011418;28;20867;-62
2021/01/24 00:17:17;;;;;;;5.60;2.47;;;15.60;99.90;;;;;;5011608;28;20085;-63
2021/01/24 00:19:42;;;;;;;3.15;1.90;;;15.60;99.90;;;;;;4996342;28;20028;-63
2021/01/24 00:22:08;;;;;;;4.75;2.30;;;15.50;99.90;;;;;;4992048;28;20517;-64
2021/01/24 00:24:33;;;;;;;3.67;2.33;;;15.50;99.90;;;;;;4991835;28;20113;-63
2021/01/24 00:26:59;;;;;;;3.25;2.22;;;15.50;99.90;;;;;;4992191;28;20038;-64
2021/01/24 00:29:24;;;;;;;3.88;2.10;;;15.50;99.90;;;;;;4992446;28;20031;-63
2021/01/24 00:31:50;;;;;;;3.30;2.22;;;15.50;99.90;;;;;;4991845;28;20026;-63
2021/01/24 00:34:16;;;;;;;3.03;1.90;;;15.40;99.90;;;;;;4991894;28;20517;-65
2021/01/24 00:36:41;;;;;;;3.97;2.15;;;15.40;99.90;;;;;;4992153;28;20121;-64
2021/01/24 00:39:07;;;;;;;3.78;2.20;;;15.40;99.90;;;;;;4996065;28;20387;-65
2021/01/24 00:41:33;;;;;;;4.28;2.40;;;15.40;99.90;;;;;;4995577;28;20465;-64
2021/01/24 00:43:59;;;;;;;3.17;2.20;;;15.40;99.90;;;;;;4996153;28;20387;-65
2021/01/24 00:46:25;;;;;;;3.60;2.17;;;15.30;99.90;;;;;;4996601;28;20026;-64
2021/01/24 00:48:50;;;;;;;4.32;2.65;;;15.30;99.90;;;;;;4995595;28;20517;-64
2021/01/24 00:51:16;;;;;;;5.35;2.10;;;15.30;99.90;;;;;;4995961;28;20516;-64
2021/01/24 00:53:41;;;;;;;3.88;2.25;;;15.30;99.90;;;;;;4995425;28;20471;-63
2021/01/24 00:56:07;;;;;;;3.17;2.15;;;15.30;99.90;;;;;;4995539;28;20034;-64
2021/01/24 00:58:33;;;;;;;5.43;2.30;;;15.30;99.90;;;;;;4996160;28;20053;-63
2021/01/24 01:00:58;;;;;;;4.47;2.15;;;15.30;99.90;;;;;;4995812;28;20031;-63
2021/01/24 01:03:24;;;;;;;4.07;2.22;;;15.20;99.90;;;;;;5011623;28;20037;-63
2021/01/24 01:05:50;;;;;;;4.03;2.10;;;15.20;99.90;;;;;;5014565;28;20029;-63
2021/01/24 01:08:15;;;;;;;3.05;2.10;;;15.20;99.90;;;;;;5014979;28;20034;-63
2021/01/24 01:10:42;;;;;;;3.88;2.10;;;15.20;99.90;;;;;;5014681;28;20024;-64
2021/01/24 01:13:08;;;;;;;5.20;2.60;;;15.20;99.90;;;;;;5015017;28;20486;-63
2021/01/24 01:15:34;;;;;;;3.85;2.20;;;15.20;99.90;;;;;;5014628;28;20024;-64
2021/01/24 01:17:59;;;;;;;2.83;2.05;;;15.20;99.90;;;;;;5013387;28;20049;-64
2021/01/24 01:20:25;;;;;;;2.40;2.00;;;15.20;99.90;;;;;;5013892;28;20014;-64
2021/01/24 01:22:51;;;;;;;3.47;2.13;;;15.10;99.90;;;;;;5014388;28;20026;-64
2021/01/24 01:25:17;;;;;;;2.67;2.00;;;15.10;99.90;;;;;;5014576;28;20041;-63
2021/01/24 01:27:43;;;;;;;3.42;2.20;;;15.10;99.90;;;;;;5014389;28;20049;-64
2021/01/24 01:30:09;;;;;;;3.03;2.10;;;15.10;99.90;;;;;;5014509;28;20038;-64
2021/01/24 01:32:35;;;;;;;3.35;1.95;;;15.10;99.90;;;;;;5014179;28;20022;-64
2021/01/24 01:35:03;;;;;;;3.20;2.17;;;15.10;99.90;;;;;;5014737;28;20033;-65
2021/01/24 01:37:28;;;;;;;2.55;1.88;;;15.00;99.90;;;;;;5013576;28;20045;-65
2021/01/24 01:39:54;;;;;;;3.22;2.22;;;15.00;99.90;;;;;;5014143;28;20025;-65
2021/01/24 01:42:20;;;;;;;3.38;1.90;;;15.00;99.90;;;;;;5014421;28;20026;-66
2021/01/24 01:44:46;;;;;;;2.63;1.92;;;15.00;99.90;;;;;;5014104;28;20339;-64
2021/01/24 01:47:16;;;;;;;3.53;1.85;;;15.00;99.90;;;;;;4999037;28;20041;-65
2021/01/24 01:49:42;;;;;;;3.45;2.03;;;15.00;99.90;;;;;;4993275;28;20055;-65
2021/01/24 01:52:07;;;;;;;2.83;2.20;;;14.90;99.90;;;;;;4994613;28;20026;-64
2021/01/24 01:54:33;;;;;;;4.28;2.10;;;14.90;99.90;;;;;;5012175;28;20037;-64
2021/01/24 01:56:59;;;;;;;2.92;1.90;;;14.90;99.90;;;;;;5014363;28;20030;-64
2021/01/24 01:59:24;;;;;;;2.65;1.98;;;14.90;99.90;;;;;;4998224;28;20493;-64
2021/01/24 02:02:15;;;;;;;2.65;2.10;;;14.90;99.90;;;;;;4994115;28;20034;-62
2021/01/24 02:04:57;;;;;;;3.25;2.10;;;14.90;99.90;;;;;;4993965;28;20035;-64
2021/01/24 02:07:36;;;;;;;2.63;1.77;;;14.80;99.90;;;;;;5010964;28;20176;-62
2021/01/24 02:10:09;;;;;;;2.40;1.75;;;14.90;99.90;;;;;;5012790;28;20411;-63
2021/01/24 02:13:02;;;;;;;4.53;2.45;;;14.90;99.90;;;;;;5013095;28;20038;-63
2021/01/24 02:15:31;;;;;;;3.40;2.05;;;14.90;99.90;;;;;;5013955;28;20482;-64
2021/01/24 02:18:01;;;;;;;2.75;2.13;;;14.90;99.90;;;;;;5013287;28;20532;-62
2021/01/24 02:20:41;;;;;;;3.40;2.22;;;14.80;99.90;;;;;;5014007;28;20080;-63
2021/01/24 02:23:10;;;;;;;4.10;2.28;;;14.80;99.90;;;;;;5013556;28;20474;-63
2021/01/24 02:25:53;;;;;;;3.65;2.00;;;14.80;99.90;;;;;;5013381;28;20111;-63
2021/01/24 02:28:55;;;;;;;2.75;2.20;;;14.80;99.90;;;;;;5008494;28;20033;-64
2021/01/24 02:31:25;;;;;;;2.85;2.15;;;14.80;99.90;;;;;;5013480;28;20068;-63
2021/01/24 02:33:51;;;;;;;2.50;2.00;;;14.80;99.90;;;;;;5013100;28;20057;-64
2021/01/24 02:36:18;;;;;;;4.57;2.38;;;14.80;99.90;;;;;;5013241;28;20041;-64
2021/01/24 02:38:45;;;;;;;3.28;2.20;;;14.80;99.90;;;;;;5013149;28;20029;-64
2021/01/24 02:41:12;;;;;;;3.33;2.30;;;14.80;99.90;;;;;;5013335;28;20466;-63
2021/01/24 02:43:41;;;;;;;3.30;2.40;;;14.70;99.90;;;;;;5012449;28;20410;-63
2021/01/24 02:46:07;;;;;;;2.30;1.83;;;14.80;99.90;;;;;;5013213;28;20022;-64
2021/01/24 02:48:32;;;;;;;3.17;2.10;;;14.70;99.90;;;;;;5012846;28;20034;-63
2021/01/24 02:50:58;;;;;;;3.05;2.42;;;14.70;99.90;;;;;;5013318;28;20030;-63
2021/01/24 02:53:25;;;;;;;3.53;2.05;;;14.70;99.90;;;;;;5011927;28;20538;-63
2021/01/24 02:55:51;;;;;;;4.60;2.30;;;14.70;99.90;;;;;;5012784;28;20037;-63
2021/01/24 02:58:17;;;;;;;3.30;2.30;;;14.70;99.90;;;;;;5012498;28;20034;-63
2021/01/24 03:00:43;;;;;;;3.22;2.20;;;14.70;99.90;;;;;;5011610;28;20447;-63
2021/01/24 03:03:08;;;;;;;2.80;2.42;;;14.70;99.90;;;;;;5012927;28;20053;-63
2021/01/24 03:05:34;;;;;;;2.22;1.80;;;14.70;99.90;;;;;;5012472;28;20125;-63
2021/01/24 03:08:00;;;;;;;4.13;2.50;;;14.60;99.90;;;;;;5012992;28;20033;-64
2021/01/24 03:10:25;;;;;;;2.85;1.90;;;14.60;99.90;;;;;;5012802;28;20076;-63
2021/01/24 03:13:14;;;;;;;3.00;2.40;;;14.60;99.90;;;;;;5012678;28;20041;-62
2021/01/24 03:15:42;;;;;;;3.20;2.00;;;14.60;99.90;;;;;;5010564;28;20084;-62
2021/01/24 03:18:12;;;;;;;5.47;2.40;;;14.60;99.90;;;;;;5011824;28;20034;-63
2021/01/24 03:20:41;;;;;;;3.05;2.38;;;14.60;99.90;;;;;;5012441;28;20025;-63
2021/01/24 03:23:07;;;;;;;2.58;2.03;;;14.60;99.90;;;;;;5012546;28;20030;-63
2021/01/24 03:25:36;;;;;;;3.90;2.40;;;14.60;99.90;;;;;;5012180;28;20025;-62
2021/01/24 03:28:03;;;;;;;2.78;2.20;;;14.50;99.90;;;;;;5012401;28;20033;-62
2021/01/24 03:30:29;;;;;;;2.97;2.10;;;14.50;99.90;;;;;;5012559;28;20474;-62
2021/01/24 03:32:56;;;;;;;4.65;2.00;;;14.50;99.90;;;;;;5012067;28;20032;-62
2021/01/24 03:35:22;;;;;;;3.42;1.98;;;14.50;99.90;;;;;;5011471;28;20029;-62
2021/01/24 03:37:47;;;;;;;3.33;2.10;;;14.50;99.90;;;;;;5011925;28;20557;-62
2021/01/24 03:40:13;;;;;;;3.50;2.30;;;14.40;99.90;;;;;;5012334;28;20105;-62
2021/01/24 03:42:39;;;;;;;3.17;2.33;;;14.40;99.90;;;;;;5011872;28;20030;-62
2021/01/24 03:45:05;;;;;;;2.78;2.38;;;14.40;99.90;;;;;;5012328;28;20105;-62
2021/01/24 03:47:31;;;;;;;3.67;2.15;;;14.40;99.90;;;;;;5012350;28;20037;-62
2021/01/24 03:49:56;;;;;;;4.10;2.20;;;14.40;99.90;;;;;;5011782;28;20022;-61
2021/01/24 03:52:22;;;;;;;3.00;2.17;;;14.40;99.90;;;;;;5011177;28;20457;-62
2021/01/24 03:54:47;;;;;;;2.88;2.25;;;14.40;99.90;;;;;;5011696;28;20374;-61
2021/01/24 03:57:13;;;;;;;2.80;2.08;;;14.40;99.90;;;;;;5011795;28;20034;-63
2021/01/24 03:59:39;;;;;;;2.88;2.30;;;14.40;99.90;;;;;;5011582;28;20029;-62
2021/01/24 04:02:04;;;;;;;2.97;2.17;;;14.30;99.90;;;;;;5011727;28;20427;-61
2021/01/24 04:04:30;;;;;;;3.63;2.20;;;14.30;99.90;;;;;;5011804;28;20037;-62
2021/01/24 04:06:55;;;;;;;2.90;2.25;;;14.30;99.90;;;;;;5011439;28;20034;-62
2021/01/24 04:09:21;;;;;;;4.78;2.55;;;14.30;99.90;;;;;;4993438;28;20048;-62
2021/01/24 04:11:47;;;;;;;2.67;2.17;;;14.20;99.90;;;;;;4991195;28;20026;-62
2021/01/24 04:14:12;;;;;;;2.80;2.28;;;14.20;99.90;;;;;;4991888;28;20451;-62
2021/01/24 04:16:38;;;;;;;3.15;2.13;;;14.20;99.90;;;;;;4991760;28;20046;-62
2021/01/24 04:19:03;;;;;;;3.47;2.13;;;14.20;99.90;;;;;;4992048;28;20022;-62
2021/01/24 04:21:29;;;;;;;3.55;2.20;;;14.20;99.90;;;;;;4992167;28;20057;-62
2021/01/24 04:23:55;;;;;;;2.58;2.22;;;14.20;99.90;;;;;;4991776;28;20026;-62
2021/01/24 04:26:20;;;;;;;3.38;2.30;;;14.20;99.90;;;;;;4992385;28;20072;-62
2021/01/24 04:28:46;;;;;;;3.78;2.38;;;14.20;99.90;;;;;;4991657;28;20038;-62
2021/01/24 04:31:12;;;;;;;3.08;2.25;;;14.20;99.90;;;;;;4992270;28;20066;-63
2021/01/24 04:33:37;;;;;;;4.13;2.00;;;14.10;99.90;;;;;;4991683;28;20027;-62
2021/01/24 04:36:03;;;;;;;3.45;2.22;;;14.10;99.90;;;;;;4991791;28;20037;-61
2021/01/24 04:38:29;;;;;;;3.08;2.35;;;14.10;99.90;;;;;;4992091;28;20034;-62
2021/01/24 04:40:55;;;;;;;2.83;1.90;;;14.10;99.90;;;;;;4991553;28;20404;-63
2021/01/24 04:43:21;;;;;;;3.47;2.20;;;14.00;99.90;;;;;;4992308;28;20097;-63
2021/01/24 04:45:47;;;;;;;2.35;1.70;;;14.00;99.90;;;;;;4991566;28;20031;-61
2021/01/24 04:48:13;;;;;;;2.30;1.88;;;14.00;99.90;;;;;;4991753;28;20097;-62
2021/01/24 04:50:39;;;;;;;2.20;1.90;;;14.00;99.90;;;;;;4991560;28;20380;-63
2021/01/24 04:53:06;;;;;;;3.80;2.13;;;14.00;99.90;;;;;;4991687;28;20100;-62
2021/01/24 04:55:32;;;;;;;3.70;2.35;;;14.00;99.90;;;;;;4991605;28;20026;-63
2021/01/24 04:57:58;;;;;;;3.22;1.95;;;14.00;99.90;;;;;;4991903;28;20046;-62
2021/01/24 05:00:24;;;;;;;3.03;2.17;;;14.00;99.90;;;;;;4992156;28;20025;-63
2021/01/24 05:02:50;;;;;;;3.15;2.00;;;13.90;99.90;;;;;;4991661;28;20030;-64
2021/01/24 05:05:16;;;;;;;5.78;2.22;;;13.90;99.90;;;;;;4998099;28;20030;-63
2021/01/24 05:07:55;;;;;;;2.97;2.25;;;13.90;99.90;;;;;;4991467;28;20066;-63
2021/01/24 05:10:26;;;;;;;6.78;1.83;;;13.90;99.90;;;;;;4991285;28;20100;-62
2021/01/24 05:12:56;;;;;;;2.80;1.98;;;13.90;99.90;;;;;;4991351;28;20576;-63
2021/01/24 05:15:23;;;;;;;3.95;2.15;;;14.00;99.90;;;;;;4991568;28;20084;-62
2021/01/24 05:17:55;;;;;;;5.28;1.80;;;13.90;99.90;;;;;;4991144;28;20050;-62
2021/01/24 05:20:23;;;;;;;2.55;1.88;;;13.90;99.90;;;;;;4991698;28;20379;-62
2021/01/24 05:22:49;;;;;;;4.68;2.05;;;13.80;99.90;;;;;;4992089;28;20034;-62
2021/01/24 05:25:41;;;;;;;3.10;2.17;;;13.80;99.90;;;;;;4995094;28;20471;-62
2021/01/24 05:28:21;;;;;;;2.53;2.03;;;13.80;99.90;;;;;;4994732;28;20106;-61
2021/01/24 05:30:47;;;;;;;3.25;2.03;;;13.80;99.90;;;;;;4994846;28;20498;-62
2021/01/24 05:33:20;;;;;;;3.25;2.15;;;13.80;99.90;;;;;;4995074;28;20153;-62
2021/01/24 05:35:48;;;;;;;3.28;2.10;;;13.70;99.90;;;;;;5014000;28;20381;-62
2021/01/24 05:38:32;;;;;;;2.88;1.80;;;13.70;99.90;;;;;;5014436;28;20038;-62
2021/01/24 05:41:06;;;;;;;4.63;2.45;;;13.70;99.90;;;;;;5014805;28;20034;-62
2021/01/24 05:43:35;;;;;;;;;;;13.70;99.90;;;;;;5014413;28;20400;-63
2021/01/24 05:46:01;;;;;;;1.92;1.73;;;13.70;99.90;;;;;;5014559;28;20380;-62
2021/01/24 05:48:27;;;;;;;3.67;1.98;;;13.60;99.90;;;;;;5014401;28;20026;-62
2021/01/24 05:50:53;;;;;;;2.95;2.20;;;13.60;99.90;;;;;;5013068;28;20572;-62
2021/01/24 05:53:19;;;;;;;3.22;2.25;;;13.60;99.90;;;;;;5014037;28;20065;-62
2021/01/24 05:55:45;;;;;;;2.72;2.33;;;13.60;99.90;;;;;;5012126;28;20022;-62
2021/01/24 05:58:28;;;;;;;2.85;1.98;;;13.60;99.90;;;;;;4994563;28;20093;-62
2021/01/24 06:00:54;;;;;;;2.57;1.90;;;13.60;99.90;;;;;;4994176;28;20022;-64
2021/01/24 06:03:20;;;;;;;3.92;2.00;;;13.50;99.90;;;;;;4993160;28;20824;-62
2021/01/24 06:05:46;;;;;;;2.85;2.10;;;13.50;99.90;;;;;;4994082;28;20046;-63
2021/01/24 06:08:15;;;;;;;3.60;2.30;;;13.60;99.90;;;;;;4994921;28;20491;-67
2021/01/24 06:10:41;;;;;;;2.65;2.05;;;13.50;99.90;;;;;;4993995;28;20052;-60
2021/01/24 06:13:12;;;;;;;7.70;2.38;;;13.60;99.90;;;;;;4994217;28;20026;-68
2021/01/24 06:15:41;;;;;;;2.92;2.00;;;13.60;99.90;;;;;;4994140;28;20027;-62
2021/01/24 06:18:14;;;;;;;2.63;1.83;;;13.60;99.90;;;;;;4994018;28;20035;-62
2021/01/24 06:20:45;;;;;;;2.17;1.30;;;13.60;99.90;;;;;;4994010;28;20049;-60
2021/01/24 06:23:23;;;;;;;3.28;1.70;;;13.70;99.90;;;;;;4996397;28;20026;-62
2021/01/24 06:25:51;;;;;;;3.17;1.33;;;13.80;99.90;;;;;;5012484;28;20069;-63
2021/01/24 06:28:31;;;;;;;1.95;1.52;;;13.70;99.90;;;;;;5013502;28;20420;-61
2021/01/24 06:30:57;;;;;;;2.55;1.60;;;13.70;99.90;;;;;;5013817;28;20036;-63
2021/01/24 06:33:24;;;;;;;3.20;1.55;;;13.60;99.90;;;;;;5013220;28;20116;-62
2021/01/24 06:36:00;;;;;;;5.30;1.90;;;13.60;99.90;;;;;;5012423;28;20033;-65
2021/01/24 06:38:27;;;;;;;2.65;1.83;;;13.50;99.90;;;;;;5013251;28;20509;-63
2021/01/24 06:40:53;;;;;;;1.98;1.45;;;13.50;99.90;;;;;;5013275;28;20030;-62
2021/01/24 06:43:34;;;;;;;4.60;1.48;;;13.60;99.90;;;;;;5011477;28;20048;-70
2021/01/24 06:46:00;;;;;;;6.30;4.18;;;13.80;99.90;;;;;;5013568;28;20050;-60
2021/01/24 06:48:47;;;;;;;7.50;4.30;;;13.50;99.90;;;;;;5013194;28;20065;-63
2021/01/24 06:51:32;;;;;;;5.88;3.22;;;13.30;99.90;;;;;;5013031;28;20036;-65
2021/01/24 06:54:03;;;;;;;3.10;2.30;;;13.40;99.90;;;;;;5013392;28;20041;-65
2021/01/24 06:56:40;;;;;;;3.67;1.65;;;13.50;99.90;;;;;;5013263;28;20482;-63
2021/01/24 06:59:06;;;;;;;5.57;1.80;;;13.80;99.90;;;;;;5003673;28;20092;-63
2021/01/24 07:01:36;;;;;;;4.50;1.63;;;14.20;99.90;;;;;;5013007;28;20025;-62
2021/01/24 07:04:17;;;;;;;3.30;1.80;;;14.20;99.90;;;;;;5013085;28;20034;-62
2021/01/24 07:06:43;;;;;;;3.75;2.00;;;14.40;99.90;;;;;;4995864;28;20081;-62
2021/01/24 07:09:27;;;;;;;3.83;1.60;;;14.50;99.90;;;;;;4993487;28;20471;-65
2021/01/24 07:11:57;;;;;;;2.35;1.25;;;14.60;99.90;;;;;;4992935;28;20061;-64
2021/01/24 07:14:34;;;;;;;4.85;1.95;;;14.70;99.90;;;;;;4993539;28;20080;-65
2021/01/24 07:17:03;;;;;;;3.00;1.73;;;14.80;99.90;;;;;;4993992;28;20390;-62
2021/01/24 07:19:30;;;;;;;4.15;1.70;;;14.70;99.90;;;;;;4993371;28;20053;-62
2021/01/24 07:21:56;;;;;;;4.47;2.10;;;14.80;99.90;;;;;;4992827;28;20026;-62
2021/01/24 07:24:22;;;;;;;3.85;1.80;;;14.70;99.90;;;;;;4993058;28;20122;-62
2021/01/24 07:26:49;;;;;;;2.42;1.75;;;14.70;99.90;;;;;;4992712;28;20098;-62
2021/01/24 07:29:14;;;;;;;3.45;2.00;;;14.70;99.90;;;;;;4993140;28;20386;-61
2021/01/24 07:31:40;;;;;;;3.17;1.92;;;14.70;99.90;;;;;;4992838;28;20033;-62
2021/01/24 07:34:07;;;;;;;3.20;1.98;;;14.70;99.90;;;;;;4993389;28;20118;-62
2021/01/24 07:36:34;;;;;;;2.95;1.92;;;14.70;99.90;;;;;;4992527;28;20089;-62
2021/01/24 07:39:00;;;;;;;6.35;4.40;;;14.70;99.90;;;;;;4993058;28;20053;-62
2021/01/24 07:41:26;;;;;;;4.68;2.85;;;14.40;99.90;;;;;;4992764;28;20486;-65
2021/01/24 07:43:52;;;;;;;3.42;2.05;;;14.20;99.90;;;;;;4992516;28;20398;-68
2021/01/24 07:46:20;;;;;;;3.42;2.10;;;14.50;99.90;;;;;;4991909;28;20126;-68
2021/01/24 07:48:45;;;;;;;3.30;1.90;;;14.50;99.90;;;;;;5006212;28;20038;-64
2021/01/24 07:51:11;;;;;;;3.65;2.15;;;14.60;99.90;;;;;;4997151;28;20434;-65
2021/01/24 07:53:37;;;;;;;3.88;2.05;;;14.60;99.90;;;;;;4992374;28;20038;-67
2021/01/24 07:56:03;;;;;;;5.28;2.08;;;14.70;99.90;;;;;;4998377;28;20046;-66
2021/01/24 07:58:29;;;;;;;4.50;2.10;;;14.70;99.90;;;;;;5011494;28;20048;-65
2021/01/24 08:00:55;;;;;;;3.83;2.10;;;14.70;99.90;;;;;;5011795;28;20022;-69
2021/01/24 08:03:22;;;;;;;7.60;2.28;;;14.70;99.90;;;;;;5012244;28;20246;-66
2021/01/24 08:05:48;;;;;;;7.25;1.85;;;14.90;99.90;;;;;;5009426;28;20080;-63
2021/01/24 08:08:14;;;;;;;10.73;1.80;;;15.00;99.90;;;;;;4992795;28;20026;-63
2021/01/24 08:10:40;;;;;;;2.95;1.60;;;15.10;99.90;;;;;;4996723;28;20037;-67
2021/01/24 08:13:05;;;;;;;4.85;2.60;;;15.10;99.90;;;;;;5002038;28;20029;-65
2021/01/24 08:15:31;;;;;;;9.35;5.82;;;15.10;99.90;;;;;;5012069;28;20022;-64
2021/01/24 08:17:59;;;;;;;13.73;7.05;;;14.40;99.40;;;;;;5011765;28;20128;-66
2021/01/24 08:20:26;;;;;;;10.90;8.02;;;13.70;98.90;;;;;;5011851;28;20029;-64
2021/01/24 08:22:52;;;;;;;8.82;6.35;;;13.10;98.50;;;;;;5011516;28;20529;-66
2021/01/24 08:25:19;;;;;;;7.70;3.70;;;13.00;99.80;;;;;;5003443;28;20026;-63
2021/01/24 08:27:45;;;;;;;10.38;3.78;;;13.70;99.90;;;;;;5026299;28;20474;-65
2021/01/24 08:30:13;;;;;;;5.22;3.30;;;14.10;99.90;;;;;;5011408;28;20493;-66
2021/01/24 08:32:41;;;;;;;6.18;3.25;;;14.40;99.90;;;;;;5011403;28;20076;-66
2021/01/24 08:35:07;;;;;;;7.57;3.15;;;14.60;99.90;;;;;;5011391;28;20029;-65
2021/01/24 08:37:33;;;;;;;9.70;3.42;;;14.70;99.90;;;;;;5011333;28;20049;-65
2021/01/24 08:39:59;;;;;;;4.85;2.75;;;14.80;99.90;;;;;;5011900;28;20030;-64
2021/01/24 08:42:25;;;;;;;7.32;3.03;;;14.90;99.90;;;;;;5000971;28;20406;-64
2021/01/24 08:45:00;;;;;;;7.28;2.55;;;14.90;99.90;;;;;;5011139;28;20030;-65
2021/01/24 08:47:26;;;;;;;6.97;2.58;;;15.00;99.90;;;;;;5011475;28;20593;-63
2021/01/24 08:50:05;;;;;;;5.70;2.50;;;15.10;99.90;;;;;;5011160;28;20112;-64
2021/01/24 08:52:30;;;;;;;8.65;2.53;;;15.10;99.90;;;;;;5011787;28;20032;-67
2021/01/24 08:55:04;;;;;;;6.63;2.30;;;15.20;99.90;;;;;;5011193;28;20018;-66
2021/01/24 08:57:34;;;;;;;5.25;2.30;;;15.20;99.90;;;;;;5010496;28;20084;-65
2021/01/24 09:00:09;;;;;;;5.10;2.15;;;15.30;99.90;;;;;;4996095;28;20031;-66
2021/01/24 09:02:36;;;;;;;4.72;2.15;;;15.40;99.90;;;;;;4995417;28;20026;-63
2021/01/24 09:05:08;;;;;;;5.70;2.10;;;15.40;99.90;;;;;;5008754;28;20026;-66
2021/01/24 09:07:44;;;;;;;3.90;2.05;;;15.50;99.90;;;;;;5014948;28;20033;-65
2021/01/24 09:10:22;;;;;;;5.47;2.10;;;15.60;99.90;;;;;;5015074;28;20092;-66
2021/01/24 09:12:50;;;;;;;4.00;2.05;;;15.70;99.90;;;;;;5013420;28;20041;-66
2021/01/24 09:15:16;;;;;;;6.43;2.45;;;15.80;99.90;;;;;;5007647;28;20041;-66
2021/01/24 09:17:42;;;;;;;3.97;1.83;;;15.80;99.90;;;;;;4995049;28;20578;-66
2021/01/24 09:20:09;;;;;;;4.30;2.47;;;15.90;99.90;;;;;;5002760;28;20027;-65
2021/01/24 09:22:35;;;;;;;5.40;2.30;;;15.90;99.90;;;;;;4998498;28;20034;-61
2021/01/24 09:25:03;;;;;;;7.80;3.05;;;15.90;99.90;;;;;;5012032;28;20105;-63
2021/01/24 09:27:28;;;;;;;8.48;3.42;;;16.00;99.90;;;;;;5013711;28;20038;-62
2021/01/24 09:29:54;;;;;;;8.95;3.13;;;16.00;99.90;;;;;;5013485;28;20590;-65
2021/01/24 09:32:21;;;;;;;9.18;3.47;;;16.00;99.90;;;;;;5005877;28;20030;-63
2021/01/24 09:34:46;;;;;;;7.90;3.85;;;16.00;99.90;;;;;;4994736;28;20032;-65
2021/01/24 09:37:12;;;;;;;8.93;3.72;;;16.00;99.90;;;;;;5002140;28;20132;-67
2021/01/24 09:39:38;;;;;;;8.70;3.40;;;16.00;99.90;;;;;;5014276;28;20022;-67
2021/01/24 09:42:04;;;;;;;9.32;3.70;;;16.00;99.90;;;;;;5014698;28;20040;-66
2021/01/24 09:44:29;;;;;;;9.85;3.53;;;15.90;99.90;;;;;;5009975;28;20032;-65
2021/01/24 09:46:55;;;;;;;6.00;3.15;;;15.90;99.90;;;;;;5012901;28;20378;-66
2021/01/24 09:49:21;;;;;;;7.95;3.72;;;15.80;99.90;;;;;;5012666;28;20028;-65
2021/01/24 09:51:46;;;;;;;8.25;3.47;;;15.80;99.90;;;;;;5012792;28;20037;-67
2021/01/24 09:54:15;;;;;;;6.78;3.45;;;15.80;99.90;;;;;;5012954;28;20033;-66
2021/01/24 09:56:41;;;;;;;7.95;3.20;;;15.70;99.90;;;;;;4999371;28;20038;-67
2021/01/24 09:59:06;;;;;;;7.68;3.53;;;15.70;99.90;;;;;;5013479;28;20026;-66
2021/01/24 10:01:33;;;;;;;7.05;3.15;;;15.70;99.90;;;;;;5013946;28;20033;-67
2021/01/24 10:03:59;;;;;;;8.23;3.65;;;15.70;99.90;;;;;;5014191;28;20386;-67
2021/01/24 10:06:24;;;;;;;6.95;3.03;;;15.70;99.90;;;;;;5005365;28;20031;-67
2021/01/24 10:08:50;;;;;;;5.32;2.72;;;15.60;99.90;;;;;;4994619;28;20100;-67
2021/01/24 10:11:17;;;;;;;6.40;3.40;;;15.70;99.90;;;;;;4993880;28;20038;-66
2021/01/24 10:13:43;;;;;;;7.38;3.20;;;15.60;99.90;;;;;;4993949;28;20438;-67
2021/01/24 10:16:08;;;;;;;5.82;3.20;;;15.60;99.90;;;;;;4994198;28;20057;-68
2021/01/24 10:18:34;;;;;;;7.25;2.85;;;15.60;99.90;;;;;;4993616;28;20031;-65
2021/01/24 10:21:00;;;;;;;11.95;3.45;;;15.60;99.90;;;;;;4994204;28;20074;-68
2021/01/24 10:23:26;;;;;;;12.82;4.03;;;15.50;99.90;;;;;;5002605;28;20095;-67
2021/01/24 10:25:53;;;;;;;11.60;4.10;;;15.50;99.90;;;;;;5013305;28;20033;-67
2021/01/24 10:28:20;;;;;;;13.30;3.67;;;15.40;99.90;;;;;;5013858;28;20104;-67
2021/01/24 10:30:45;;;;;;;12.07;4.10;;;15.30;99.90;;;;;;5012833;28;20500;-69
2021/01/24 10:33:11;;;;;;;10.00;3.72;;;15.30;99.90;;;;;;5012829;28;20112;-69
2021/01/24 10:35:38;;;;;;;13.52;4.07;;;15.20;99.90;;;;;;5005512;28;20038;-69
2021/01/24 10:38:04;;;;;;;10.73;3.63;;;15.10;99.90;;;;;;4998624;28;20034;-68
2021/01/24 10:40:30;;;;;;;10.73;3.85;;;15.10;99.90;;;;;;5002806;28;20018;-65
2021/01/24 10:42:56;;;;;;;10.35;4.15;;;15.10;99.90;;;;;;4993320;28;20033;-64
2021/01/24 10:45:23;;;;;;;9.10;3.40;;;15.10;99.90;;;;;;4993852;28;20445;-66
2021/01/24 10:47:49;;;;;;;7.78;3.22;;;15.10;99.90;;;;;;4994514;28;20033;-67
2021/01/24 10:50:15;;;;;;;11.32;3.08;;;15.00;99.90;;;;;;5013182;28;20026;-68
2021/01/24 10:52:40;;;;;;;9.73;3.65;;;15.00;99.90;;;;;;5005276;28;20497;-67
2021/01/24 10:55:07;;;;;;;8.40;3.25;;;15.00;99.90;;;;;;4993470;28;20541;-66
2021/01/24 10:57:32;;;;;;;10.00;3.40;;;15.00;99.90;;;;;;5002741;28;20043;-68
2021/01/24 10:59:58;;;;;;;8.27;3.15;;;15.00;99.90;;;;;;5013228;28;20485;-68
2021/01/24 11:02:23;;;;;;;6.38;2.95;;;15.00;99.90;;;;;;5009259;28;20031;-68
2021/01/24 11:04:49;;;;;;;7.13;3.20;;;14.90;99.90;;;;;;4993092;28;20038;-65
2021/01/24 11:07:15;;;;;;;7.30;2.83;;;14.90;99.90;;;;;;5004389;28;20033;-66
2021/01/24 11:09:40;;;;;;;6.72;2.90;;;14.90;99.90;;;;;;5012755;28;20029;-67
2021/01/24 11:12:06;;;;;;;7.85;3.00;;;14.80;99.90;;;;;;5012544;28;20030;-65
2021/01/24 11:14:32;;;;;;;8.20;2.70;;;14.80;99.90;;;;;;5003830;28;20030;-67
2021/01/24 11:16:58;;;;;;;7.97;3.15;;;14.80;99.90;;;;;;5012964;28;20034;-65
2021/01/24 11:19:23;;;;;;;7.32;2.85;;;14.70;99.90;;;;;;5012747;28;20030;-66
2021/01/24 11:21:49;;;;;;;6.30;3.17;;;14.70;99.90;;;;;;5012358;28;20018;-65
2021/01/24 11:24:14;;;;;;;8.15;3.03;;;14.60;99.90;;;;;;5011244;28;20410;-65
2021/01/24 11:26:40;;;;;;;4.13;2.80;;;14.60;99.90;;;;;;5012514;28;20470;-66
2021/01/24 11:29:06;;;;;;;5.20;2.60;;;14.60;99.90;;;;;;5012582;28;20033;-66
2021/01/24 11:31:32;;;;;;;6.25;2.60;;;14.60;99.90;;;;;;5010330;28;20402;-66
2021/01/24 11:33:58;;;;;;;4.90;2.50;;;14.70;99.90;;;;;;5012741;28;20160;-65
2021/01/24 11:36:23;;;;;;;5.80;2.92;;;14.70;99.90;;;;;;5012382;28;20390;-66
2021/01/24 11:38:49;;;;;;;6.80;3.00;;;14.80;99.90;;;;;;5012160;28;20033;-65
2021/01/24 11:41:15;;;;;;;4.90;2.85;;;14.80;99.90;;;;;;5012411;28;20029;-65
2021/01/24 11:43:40;;;;;;;5.90;2.47;;;14.90;99.90;;;;;;5008223;28;20018;-66
2021/01/24 11:46:06;;;;;;;6.85;3.00;;;14.90;99.90;;;;;;4992663;28;20117;-66
2021/01/24 11:48:31;;;;;;;5.80;2.42;;;14.90;99.90;;;;;;4993319;28;20364;-66
2021/01/24 11:50:57;;;;;;;5.90;2.70;;;15.10;99.90;;;;;;4993105;28;20023;-65
2021/01/24 11:53:23;;;;;;;5.05;2.55;;;15.10;99.90;;;;;;5012253;28;20060;-65
2021/01/24 11:55:52;;;;;;;3.78;2.40;;;15.20;99.90;;;;;;4996852;28;20038;-65
2021/01/24 11:58:19;;;;;;;3.78;2.40;;;15.20;99.90;;;;;;5012000;28;20042;-65
2021/01/24 12:00:45;;;;;;;4.65;2.40;;;15.30;99.90;;;;;;5011690;28;20044;-65
2021/01/24 12:03:11;;;;;;;5.88;2.30;;;15.30;99.90;;;;;;5012111;28;20029;-65
2021/01/24 12:05:36;;;;;;;5.55;2.10;;;15.30;99.90;;;;;;5008653;28;20038;-65
2021/01/24 12:08:02;;;;;;;5.55;1.98;;;15.50;99.90;;;;;;5010598;28;20072;-65
2021/01/24 12:10:29;;;;;;;4.35;2.47;;;15.50;99.90;;;;;;5011017;28;20049;-65
2021/01/24 12:12:54;;;;;;;4.03;2.03;;;15.50;99.90;;;;;;5010221;28;20034;-65
2021/01/24 12:15:20;;;;;;;3.92;2.00;;;15.60;99.90;;;;;;5011868;28;20037;-70
2021/01/24 12:17:46;;;;;;;3.63;1.85;;;15.70;99.90;;;;;;5011099;28;20064;-69
2021/01/24 12:20:12;;;;;;;5.97;2.42;;;15.70;99.90;;;;;;5008670;28;20030;-65
2021/01/24 12:22:38;;;;;;;5.30;1.90;;;15.70;99.90;;;;;;5001979;28;20034;-61
2021/01/24 12:25:05;;;;;;;3.90;1.95;;;15.90;99.90;;;;;;4992133;28;20025;-64
2021/01/24 12:27:30;;;;;;;2.80;1.58;;;16.00;99.90;;;;;;5010049;28;20030;-66
2021/01/24 12:29:56;;;;;;;4.43;1.88;;;16.20;99.90;;;;;;4998490;28;20026;-63
2021/01/24 12:32:22;;;;;;;4.20;2.30;;;16.30;99.90;;;;;;5007525;28;20037;-61
2021/01/24 12:34:47;;;;;;;3.28;1.83;;;16.40;99.90;;;;;;5009993;28;20061;-64
2021/01/24 12:37:13;;;;;;;3.60;1.80;;;16.50;99.90;;;;;;5009941;28;20450;-64
2021/01/24 12:39:38;;;;;;;3.97;1.83;;;16.70;99.90;;;;;;5009573;28;20034;-62
2021/01/24 12:42:04;;;;;;;3.47;1.90;;;16.70;99.90;;;;;;5009963;28;20355;-63
2021/01/24 12:44:30;;;;;;;2.72;1.60;;;16.80;99.90;;;;;;5010371;28;20018;-61
2021/01/24 12:46:55;;;;;;;6.40;1.95;;;16.90;99.90;;;;;;5010259;28;20030;-64